Terminal Aerodrome Forecast
Issued by NWS

Home | Current Version | Previous Version | Text Only | Print | Product List | Glossary On
Versions: 1 2 3 4 5 6 7 8 9 10 11 12 13 14 15 16 17 18 19 20 21 22 23 24 25 26
000
FTUS41 KBUF 010703 AAA
TAFIAG
TAF AMD
KIAG 010703Z 0107/0206 VRB03KT 1/4SM FG BKN001
     FM011300 00000KT P6SM BKN001
     FM011400 VRB03KT P6SM FEW250
     FM011500 22008KT P6SM FEW250=

USA.gov is the U.S. government's official web portal to all federal, state and local government web resources and services.